Time;durP1;ratioP1;P1;durP2;ratioP2;P2;SDS_P1;SDS_P2;PMS_P1;PMS_P2;Temp;Humidity;BMP_temperature;BMP_pressure;BME280_temperature;BME280_humidity;BME280_pressure;Samples;Min_cycle;Max_cycle;Signal;HPM_P1;HPM_P2
2022/01/23 00:02:17;;;;;;;2.80;1.80;;;;;;;13.48;34.73;97770.69;5113585;28;20039;-26
2022/01/23 00:04:43;;;;;;;3.72;2.17;;;;;;;13.47;34.87;97763.72;5113153;28;20019;-25
2022/01/23 00:07:11;;;;;;;5.07;2.28;;;;;;;13.50;34.91;97773.75;5113270;28;20095;-25
2022/01/23 00:09:37;;;;;;;3.33;1.95;;;;;;;13.46;34.91;97779.28;5113907;28;20368;-25
2022/01/23 00:12:09;;;;;;;3.80;2.03;;;;;;;13.40;34.83;97778.19;5113567;28;20030;-26
2022/01/23 00:17:21;;;;;;;3.20;2.00;;;;;;;13.46;35.08;97773.06;5113039;28;20042;-25
2022/01/23 00:19:53;;;;;;;3.90;2.13;;;;;;;13.38;34.60;97771.63;5113439;28;20103;-26
2022/01/23 00:22:23;;;;;;;4.07;2.45;;;;;;;13.49;34.76;97777.66;5113071;28;20034;-26
2022/01/23 00:32:45;;;;;;;3.85;2.20;;;;;;;13.33;34.87;97783.00;5113133;28;20025;-25
2022/01/23 00:35:10;;;;;;;3.55;2.10;;;;;;;13.43;34.54;97776.59;5113039;28;20031;-25
2022/01/23 00:37:35;;;;;;;4.18;2.15;;;;;;;13.36;34.79;97773.97;5116522;28;20533;-25
2022/01/23 00:40:01;;;;;;;3.83;2.45;;;;;;;13.39;34.83;97781.34;5116571;28;20437;-26
2022/01/23 00:42:28;;;;;;;4.65;2.63;;;;;;;13.36;34.71;97779.44;5116400;28;20463;-25
2022/01/23 00:45:01;;;;;;;3.63;2.22;;;;;;;13.37;35.09;97781.75;5116519;28;20424;-26
2022/01/23 00:47:26;;;;;;;3.88;2.50;;;;;;;13.32;34.64;97779.50;5116343;27;20368;-25
2022/01/23 00:49:52;;;;;;;3.28;2.17;;;;;;;13.49;34.75;97783.13;5116259;28;20034;-26
2022/01/23 00:52:18;;;;;;;4.93;2.90;;;;;;;13.43;34.47;97784.78;5116374;28;20099;-25
2022/01/23 00:54:44;;;;;;;3.58;2.53;;;;;;;13.39;34.64;97778.59;5115138;28;20360;-25
2022/01/23 00:57:10;;;;;;;3.88;2.47;;;;;;;13.40;34.79;97780.16;5116271;28;20049;-25
2022/01/23 00:59:35;;;;;;;5.20;2.70;;;;;;;13.35;34.86;97791.53;5116045;28;20100;-26
2022/01/23 01:02:01;;;;;;;4.38;2.22;;;;;;;13.40;34.98;97772.75;5116434;28;20027;-26
2022/01/23 01:04:28;;;;;;;5.90;3.08;;;;;;;13.39;34.83;97773.94;5116028;28;20019;-26
2022/01/23 01:06:54;;;;;;;4.45;2.20;;;;;;;13.36;34.54;97779.44;5116023;28;20532;-25
2022/01/23 01:09:19;;;;;;;4.25;2.40;;;;;;;13.35;34.91;97780.63;5116874;27;20023;-26
2022/01/23 01:17:21;;;;;;;3.47;2.20;;;;;;;13.37;35.06;97780.97;5136838;27;20046;-25
2022/01/23 01:31:05;;;;;;;3.03;2.03;;;;;;;13.38;34.92;97786.00;5136075;27;20026;-26
2022/01/23 01:33:49;;;;;;;4.60;2.33;;;;;;;13.39;34.97;97784.06;5136158;27;20391;-26
2022/01/23 01:38:43;;;;;;;4.20;2.20;;;;;;;13.38;34.99;97779.78;5135922;27;20279;-26
2022/01/23 01:41:09;;;;;;;4.82;2.30;;;;;;;13.40;34.47;97788.31;5135859;27;20037;-25
2022/01/23 01:43:34;;;;;;;3.67;2.10;;;;;;;13.42;34.50;97785.97;5135767;27;20023;-26
2022/01/23 01:46:00;;;;;;;4.95;2.28;;;;;;;13.39;34.95;97784.84;5135740;27;20023;-26
2022/01/23 01:48:26;;;;;;;3.65;2.50;;;;;;;13.34;34.72;97790.00;5135472;27;20387;-26
2022/01/23 01:50:54;;;;;;;3.22;2.20;;;;;;;13.36;34.66;97795.78;5135722;27;20537;-26
2022/01/23 01:53:22;;;;;;;5.25;2.50;;;;;;;13.39;34.42;97784.06;5135650;27;20459;-26
2022/01/23 01:55:54;;;;;;;3.38;2.08;;;;;;;13.38;34.75;97782.50;5135487;27;20066;-25
2022/01/23 02:09:27;;;;;;;5.32;2.20;;;;;;;13.40;34.55;97774.69;5135588;27;20057;-26
2022/01/23 02:55:49;;;;;;;4.00;2.00;;;;;;;13.30;34.21;97782.63;5071253;28;20031;-25
2022/01/23 02:58:20;;;;;;;3.63;1.98;;;;;;;13.24;34.16;97781.53;5070673;28;20079;-26
2022/01/23 03:01:04;;;;;;;3.35;2.22;;;;;;;13.24;34.43;97788.94;5070984;28;20089;-25
2022/01/23 03:03:30;;;;;;;3.03;2.13;;;;;;;13.27;34.34;97788.88;5071565;28;20044;-25
2022/01/23 03:06:52;;;;;;;3.67;2.10;;;;;;;13.28;33.91;97790.44;5071352;28;20389;-25
2022/01/23 03:29:57;;;;;;;5.95;3.25;;;;;;;13.19;34.48;97809.25;5134385;28;20463;-25
2022/01/23 03:32:37;;;;;;;4.53;2.63;;;;;;;13.20;34.55;97807.31;5134430;28;20035;-26
2022/01/23 03:35:04;;;;;;;5.10;2.72;;;;;;;13.19;34.72;97813.94;5134284;28;20471;-26
2022/01/23 03:37:29;;;;;;;4.82;2.38;;;;;;;13.19;34.46;97811.19;5133938;28;20110;-25
2022/01/23 03:39:55;;;;;;;6.70;2.70;;;;;;;13.19;34.66;97805.75;5134101;28;20095;-26
2022/01/23 03:42:20;;;;;;;5.63;2.95;;;;;;;13.20;34.55;97810.78;5133749;28;20103;-26
2022/01/23 03:45:04;;;;;;;4.43;2.70;;;;;;;13.22;34.63;97813.88;5115617;28;20027;-26
2022/01/23 03:47:38;;;;;;;4.90;3.03;;;;;;;13.23;34.31;97809.94;5134153;28;20027;-25
2022/01/23 03:50:08;;;;;;;4.82;3.25;;;;;;;13.19;34.70;97809.25;5133854;28;20038;-25
2022/01/23 03:52:33;;;;;;;5.75;3.08;;;;;;;13.16;34.60;97814.75;5133791;28;20026;-26
2022/01/23 03:54:59;;;;;;;7.15;3.15;;;;;;;13.12;34.35;97811.25;5134262;28;20063;-25
2022/01/23 03:57:24;;;;;;;5.60;3.35;;;;;;;13.18;34.44;97810.44;5134006;28;20027;-26
2022/01/23 03:59:50;;;;;;;6.63;3.40;;;;;;;13.23;34.15;97798.28;5133794;28;20051;-26
2022/01/23 04:02:16;;;;;;;4.68;3.00;;;;;;;13.16;34.41;97801.88;5133643;28;20027;-25
2022/01/23 04:04:42;;;;;;;4.97;3.15;;;;;;;13.19;34.44;97797.59;5133702;28;20022;-26
2022/01/23 04:07:25;;;;;;;6.82;2.92;;;;;;;13.24;34.75;97800.59;5133880;28;20102;-26
2022/01/23 04:09:51;;;;;;;5.32;3.25;;;;;;;13.14;34.70;97803.44;5134757;27;20030;-26
2022/01/23 04:14:53;;;;;;;6.55;3.15;;;;;;;13.17;34.50;97806.16;5137746;27;20023;-26
2022/01/23 05:00:09;;;;;;;4.47;2.60;;;;;;;13.18;33.77;97834.19;5136635;27;20131;-26
2022/01/23 05:05:01;;;;;;;3.90;2.42;;;;;;;13.05;34.16;97833.91;5136620;27;20029;-25
2022/01/23 05:07:29;;;;;;;4.05;2.30;;;;;;;13.19;34.01;97833.75;5136752;27;20027;-26
2022/01/23 05:09:54;;;;;;;3.47;2.50;;;;;;;13.13;34.18;97843.53;5136785;27;20019;-26
2022/01/23 05:12:27;;;;;;;3.88;2.28;;;;;;;13.11;34.16;97835.00;5136379;27;20540;-25
2022/01/23 05:14:53;;;;;;;3.53;2.47;;;;;;;13.12;34.12;97839.25;5136456;27;20030;-25
2022/01/23 05:17:19;;;;;;;4.45;2.55;;;;;;;13.18;34.00;97840.41;5136325;27;20109;-26
2022/01/23 05:19:44;;;;;;;4.50;2.72;;;;;;;13.13;33.84;97843.53;5136436;27;20071;-26
2022/01/23 05:24:48;;;;;;;4.68;2.90;;;;;;;13.14;34.13;97842.38;5136403;27;20023;-26
2022/01/23 05:27:14;;;;;;;4.10;2.35;;;;;;;13.15;34.13;97851.31;5136620;27;20030;-26
2022/01/23 05:29:40;;;;;;;4.90;2.83;;;;;;;13.11;34.01;97839.66;5136344;27;20023;-26
2022/01/23 05:32:08;;;;;;;3.60;2.67;;;;;;;13.12;34.06;97849.38;5136053;27;20027;-26
2022/01/23 05:34:34;;;;;;;4.72;2.67;;;;;;;13.04;33.99;97862.31;5136207;27;20034;-25
2022/01/23 05:36:59;;;;;;;4.03;2.63;;;;;;;13.04;33.86;97856.88;5117735;27;20019;-26
2022/01/23 05:39:27;;;;;;;4.55;2.33;;;;;;;13.06;34.11;97859.19;5136119;27;20135;-26
2022/01/23 05:41:58;;;;;;;4.45;2.78;;;;;;;13.03;34.23;97871.69;5135848;27;20072;-26
2022/01/23 05:44:24;;;;;;;4.72;2.80;;;;;;;12.98;34.33;97869.41;5135884;27;20023;-25
2022/01/23 05:46:49;;;;;;;4.55;2.80;;;;;;;13.03;33.67;97866.22;5117710;27;20027;-26
2022/01/23 05:49:15;;;;;;;5.07;2.35;;;;;;;12.99;34.16;97870.94;5135997;27;20034;-26
2022/01/23 05:51:41;;;;;;;4.18;2.75;;;;;;;13.04;33.93;97873.22;5135992;27;20083;-26
2022/01/23 05:54:06;;;;;;;3.90;2.78;;;;;;;13.01;34.14;97871.31;5135760;27;20061;-26
2022/01/23 05:56:32;;;;;;;5.43;2.83;;;;;;;13.01;34.37;97884.91;5135632;27;20083;-26
2022/01/23 05:58:57;;;;;;;4.88;2.70;;;;;;;13.01;34.21;97874.03;5135387;27;20043;-26
2022/01/23 06:01:23;;;;;;;4.78;2.65;;;;;;;13.07;33.80;97874.38;5135499;27;20031;-26
2022/01/23 06:03:48;;;;;;;4.53;2.45;;;;;;;13.01;33.66;97876.75;5135473;27;20119;-26
2022/01/23 06:06:14;;;;;;;3.88;2.40;;;;;;;13.06;33.35;97881.00;5135364;27;20072;-26
2022/01/23 06:08:40;;;;;;;3.17;2.30;;;;;;;13.03;33.79;97877.13;5135435;27;20037;-25
2022/01/23 06:11:05;;;;;;;4.63;2.38;;;;;;;12.95;34.00;97889.28;5135612;27;20023;-26
2022/01/23 06:13:32;;;;;;;4.47;2.50;;;;;;;13.01;33.51;97890.38;5135484;27;20019;-26
2022/01/23 06:15:57;;;;;;;3.75;2.30;;;;;;;13.00;33.80;97899.72;5135177;27;20094;-25
2022/01/23 06:18:23;;;;;;;4.32;2.22;;;;;;;13.01;33.54;97901.25;5112842;27;20130;-26
2022/01/23 06:20:48;;;;;;;3.53;2.65;;;;;;;12.99;33.39;97902.84;5116798;27;20024;-25
2022/01/23 06:23:14;;;;;;;3.85;2.10;;;;;;;12.92;33.64;97909.16;5114988;27;20122;-26
2022/01/23 06:25:44;;;;;;;3.95;2.20;;;;;;;12.94;33.36;97907.56;5133108;27;20034;-26
2022/01/23 06:28:10;;;;;;;2.80;2.25;;;;;;;12.90;33.58;97909.56;5133097;27;20443;-25
2022/01/23 06:30:37;;;;;;;3.75;2.40;;;;;;;12.86;33.78;97908.03;5113986;27;20019;-26
2022/01/23 06:33:05;;;;;;;4.22;2.42;;;;;;;12.87;33.69;97912.31;5132940;27;20387;-26
2022/01/23 06:35:32;;;;;;;5.75;3.13;;;;;;;12.99;33.56;97906.34;5129440;27;20463;-25
2022/01/23 06:37:58;;;;;;;3.13;2.13;;;;;;;12.91;33.83;97907.59;5112420;28;20118;-26
2022/01/23 06:40:23;;;;;;;3.28;2.40;;;;;;;12.83;33.93;97900.69;5112339;28;20127;-26
2022/01/23 06:42:49;;;;;;;4.70;2.55;;;;;;;12.89;33.91;97912.69;5111834;28;20102;-25
2022/01/23 06:45:14;;;;;;;3.72;2.20;;;;;;;12.89;33.67;97912.69;5112225;28;20020;-25
2022/01/23 06:47:40;;;;;;;3.88;2.38;;;;;;;12.87;33.50;97913.06;5112208;28;20451;-25
2022/01/23 06:50:06;;;;;;;4.40;2.35;;;;;;;12.87;33.71;97923.19;5110353;28;20027;-26
2022/01/23 06:52:31;;;;;;;4.28;2.47;;;;;;;12.91;33.43;97930.16;5111987;28;20428;-26
2022/01/23 06:54:57;;;;;;;4.47;2.70;;;;;;;12.86;33.42;97932.53;5111648;28;20035;-26
2022/01/23 06:57:22;;;;;;;4.60;3.00;;;;;;;12.94;33.60;97947.66;5111862;28;20475;-27
2022/01/23 06:59:48;;;;;;;5.35;2.90;;;;;;;12.93;33.66;97937.94;5111688;28;20055;-25
2022/01/23 07:02:15;;;;;;;4.35;2.83;;;;;;;12.92;33.64;97942.59;5111674;28;20051;-26
2022/01/23 07:04:40;;;;;;;5.50;2.95;;;;;;;12.84;34.02;97952.03;5111947;28;20024;-26
2022/01/23 07:07:08;;;;;;;5.03;3.28;;;;;;;12.86;33.74;97954.31;5111703;28;20024;-26
2022/01/23 07:09:33;;;;;;;4.40;2.50;;;;;;;12.95;33.66;97962.81;5111574;28;20035;-26
2022/01/23 07:11:59;;;;;;;4.53;2.95;;;;;;;12.90;33.74;97953.13;5114523;27;20029;-26
2022/01/23 07:14:25;;;;;;;4.97;2.97;;;;;;;12.91;33.98;97960.13;5132124;27;20023;-25
2022/01/23 07:16:50;;;;;;;5.78;3.17;;;;;;;12.89;33.86;97965.19;5132090;27;20455;-26
2022/01/23 07:19:16;;;;;;;7.40;3.35;;;;;;;12.97;33.78;97965.13;5132169;27;20053;-26
2022/01/23 07:21:42;;;;;;;4.80;3.03;;;;;;;12.93;33.91;97962.44;5132069;27;20522;-26
2022/01/23 07:24:07;;;;;;;6.22;3.40;;;;;;;12.94;33.96;97959.31;5132147;28;20379;-26
2022/01/23 07:26:34;;;;;;;5.07;3.65;;;;;;;12.84;34.21;97967.59;5132006;28;20395;-26
2022/01/23 07:29:02;;;;;;;6.28;3.55;;;;;;;12.86;33.84;97960.53;5131495;28;20471;-26
2022/01/23 07:32:10;;;;;;;5.97;3.63;;;;;;;12.92;33.63;97969.84;5131908;28;20019;-26
2022/01/23 07:34:16;;;;;;;6.30;3.33;;;;;;;12.90;33.90;97976.84;5123535;28;20046;-25
2022/01/23 07:36:41;;;;;;;4.95;3.17;;;;;;;12.84;33.99;97976.53;5132014;28;20027;-26
2022/01/23 07:39:07;;;;;;;5.95;3.50;;;;;;;12.91;33.71;97984.63;5132197;28;20630;-26
2022/01/23 07:41:33;;;;;;;4.75;3.15;;;;;;;12.90;33.59;97993.19;5131564;28;20027;-26
2022/01/23 07:43:59;;;;;;;6.07;3.60;;;;;;;12.91;34.01;97983.84;5132055;27;20539;-26
2022/01/23 07:46:24;;;;;;;6.50;3.22;;;;;;;12.88;34.10;97990.09;5135656;27;20506;-26
2022/01/23 07:48:50;;;;;;;4.75;3.63;;;;;;;13.06;33.52;97987.97;5136209;27;20379;-26
2022/01/23 07:51:16;;;;;;;4.40;3.30;;;;;;;12.92;33.32;97993.56;5134183;27;20054;-26
2022/01/23 07:53:41;;;;;;;5.60;3.55;;;;;;;12.93;33.98;97992.38;5135887;27;20105;-26
2022/01/23 07:56:07;;;;;;;5.15;3.33;;;;;;;12.98;33.53;97991.97;5135979;27;20045;-26
2022/01/23 07:58:32;;;;;;;4.68;3.10;;;;;;;12.92;33.43;97990.84;5135900;27;20035;-26
2022/01/23 08:00:58;;;;;;;6.22;3.65;;;;;;;12.79;33.95;97992.50;5135703;27;20031;-26
2022/01/23 08:03:23;;;;;;;7.25;4.20;;;;;;;12.81;33.86;97992.88;5135846;27;20471;-26
2022/01/23 08:05:49;;;;;;;8.43;4.18;;;;;;;12.85;33.40;97996.38;5117157;27;20087;-26
2022/01/23 08:08:14;;;;;;;6.82;3.80;;;;;;;12.90;33.52;98001.34;5135610;27;20061;-26
2022/01/23 08:10:40;;;;;;;8.07;3.75;;;;;;;12.91;33.83;98008.34;5135086;27;20067;-26
2022/01/23 08:13:06;;;;;;;5.30;3.83;;;;;;;12.99;33.50;98006.31;5123020;27;20028;-26
2022/01/23 08:15:33;;;;;;;8.45;4.82;;;;;;;12.92;33.73;98012.63;5114998;28;20027;-26
2022/01/23 08:18:03;;;;;;;7.53;4.05;;;;;;;12.90;33.37;98017.69;5114755;28;20042;-26
2022/01/23 08:20:29;;;;;;;7.03;4.05;;;;;;;12.97;33.45;98027.75;5115113;28;20019;-26
2022/01/23 08:22:57;;;;;;;7.53;4.28;;;;;;;12.91;33.36;98019.25;5115119;28;20023;-26
2022/01/23 08:25:23;;;;;;;7.47;4.40;;;;;;;12.95;33.12;98028.16;5114842;28;20026;-26
2022/01/23 08:27:48;;;;;;;9.70;4.28;;;;;;;12.92;33.46;98018.84;5114681;28;20028;-25
2022/01/23 08:30:14;;;;;;;6.80;4.00;;;;;;;12.87;33.73;98023.94;5114416;28;20028;-26
2022/01/23 08:32:39;;;;;;;9.13;4.80;;;;;;;12.85;33.15;98031.75;5114526;28;20030;-26
2022/01/23 08:35:05;;;;;;;9.82;4.50;;;;;;;12.93;33.53;98030.50;5114647;28;20039;-26
2022/01/23 08:37:31;;;;;;;8.80;4.43;;;;;;;12.81;33.34;98031.00;5114260;28;20019;-26
2022/01/23 08:39:57;;;;;;;6.93;3.88;;;;;;;12.94;33.17;98029.34;5114361;28;20103;-26
2022/01/23 08:42:22;;;;;;;8.73;3.90;;;;;;;12.97;32.89;98036.72;5114056;28;20412;-26
2022/01/23 08:44:50;;;;;;;7.63;4.30;;;;;;;12.92;33.08;98045.31;5114345;28;20038;-26
2022/01/23 08:47:17;;;;;;;6.22;4.13;;;;;;;12.89;33.31;98041.44;5114082;28;20494;-25
2022/01/23 08:49:45;;;;;;;7.82;4.15;;;;;;;12.84;33.19;98038.38;5112475;28;20027;-26
2022/01/23 08:52:14;;;;;;;7.60;4.00;;;;;;;12.81;33.25;98039.94;5114052;28;20053;-26
2022/01/23 08:54:39;;;;;;;7.70;4.65;;;;;;;12.84;33.59;98049.28;5114024;28;20027;-26
2022/01/23 08:57:05;;;;;;;7.82;4.13;;;;;;;12.85;33.30;98045.38;5113010;28;20027;-26
2022/01/23 08:59:31;;;;;;;6.95;4.15;;;;;;;12.84;33.78;98049.28;5113844;28;20400;-26
2022/01/23 09:01:56;;;;;;;7.22;3.67;;;;;;;12.90;33.20;98051.16;5113911;28;20024;-26
2022/01/23 09:04:22;;;;;;;25.50;5.60;;;;;;;12.92;33.18;98056.19;5113719;28;20023;-26
2022/01/23 09:06:47;;;;;;;26.38;5.63;;;;;;;12.83;33.49;98064.84;5113505;28;20110;-26
2022/01/23 09:09:18;;;;;;;23.50;5.57;;;;;;;12.85;33.20;98053.53;5113948;28;20027;-25
2022/01/23 09:11:59;;;;;;;21.35;5.70;;;;;;;12.84;32.98;98050.03;5114663;27;20016;-26
2022/01/23 09:14:25;;;;;;;17.27;3.97;;;;;;;12.80;33.54;98043.06;5134443;27;20024;-26
2022/01/23 09:16:52;;;;;;;15.98;4.68;;;;;;;12.85;32.96;98056.25;5134031;27;20027;-26
2022/01/23 09:19:19;;;;;;;15.57;4.57;;;;;;;12.89;33.17;98057.00;5134276;27;20027;-25
2022/01/23 09:21:49;;;;;;;19.27;5.13;;;;;;;12.90;33.34;98059.31;5133847;27;20034;-26
2022/01/23 09:24:16;;;;;;;16.02;4.43;;;;;;;12.89;33.12;98062.44;5134281;27;20031;-25
2022/01/23 09:26:42;;;;;;;17.38;4.40;;;;;;;12.80;33.05;98064.84;5133990;27;20102;-26
2022/01/23 09:29:14;;;;;;;8.82;4.05;;;;;;;12.67;33.51;98066.50;5133440;27;20122;-25
2022/01/23 09:31:48;;;;;;;13.45;3.75;;;;;;;12.87;33.35;98070.22;5133774;27;20019;-25
2022/01/23 09:34:23;;;;;;;10.05;3.33;;;;;;;12.85;33.09;98062.47;5133619;27;20081;-26
2022/01/23 09:36:50;;;;;;;10.15;3.80;;;;;;;12.89;32.97;98068.66;5133630;27;20022;-26
2022/01/23 09:39:16;;;;;;;7.63;3.65;;;;;;;11.89;33.53;98059.56;5134806;27;20023;-27
2022/01/23 09:41:48;;;;;;;7.10;3.70;;;;;;;12.30;33.12;98064.41;5134823;27;20027;-27
2022/01/23 09:44:18;;;;;;;8.82;5.30;;;;;;;12.54;32.47;98061.53;5117249;27;20382;-26
2022/01/23 09:46:45;;;;;;;9.60;4.20;;;;;;;12.70;32.40;98071.16;5135738;27;20096;-27
2022/01/23 09:49:14;;;;;;;8.63;3.65;;;;;;;12.71;32.62;98072.69;5135638;27;20048;-27
2022/01/23 09:51:46;;;;;;;7.07;3.35;;;;;;;12.72;32.91;98068.81;5135646;27;20043;-26
2022/01/23 09:54:14;;;;;;;7.15;3.97;;;;;;;12.76;32.86;98062.16;5135541;27;20023;-27
2022/01/23 09:56:41;;;;;;;8.50;4.20;;;;;;;12.67;33.20;98067.28;5135114;27;20023;-26
2022/01/23 09:59:14;;;;;;;13.30;4.30;;;;;;;12.77;32.93;98058.25;5135412;27;20058;-27
2022/01/23 10:01:41;;;;;;;8.23;3.92;;;;;;;12.62;33.15;98062.25;5116957;27;20022;-26
2022/01/23 10:04:07;;;;;;;7.15;3.88;;;;;;;12.62;33.14;98064.19;5135486;27;20079;-26
2022/01/23 10:06:33;;;;;;;8.05;3.90;;;;;;;12.77;33.14;98068.38;5135567;27;20065;-26
2022/01/23 10:08:59;;;;;;;5.50;3.60;;;;;;;12.69;33.06;98075.03;5135227;27;20039;-26
2022/01/23 10:11:29;;;;;;;5.75;3.55;;;;;;;12.76;32.66;98074.97;5135518;27;20019;-26
2022/01/23 10:13:54;;;;;;;5.60;3.47;;;;;;;12.76;32.76;98066.81;5135483;27;20023;-26
2022/01/23 10:16:21;;;;;;;18.20;9.50;;;;;;;12.46;32.96;98068.22;5135097;27;20015;-27
2022/01/23 10:18:48;;;;;;;12.13;8.55;;;;;;;12.71;32.20;98067.25;5116473;27;20030;-26
2022/01/23 10:21:13;;;;;;;11.57;7.43;;;;;;;12.98;32.38;98060.03;5134892;27;20031;-27
2022/01/23 10:23:39;;;;;;;10.00;7.07;;;;;;;13.06;32.24;98058.03;5134803;27;20025;-26
2022/01/23 10:26:05;;;;;;;10.75;6.78;;;;;;;13.11;32.32;98054.84;5134890;27;20051;-26
2022/01/23 10:28:32;;;;;;;8.65;6.15;;;;;;;13.13;32.61;98049.78;5134573;27;20419;-26
2022/01/23 10:31:03;;;;;;;11.68;6.18;;;;;;;13.14;32.66;98048.59;5134838;27;20098;-26
2022/01/23 10:33:34;;;;;;;9.85;6.00;;;;;;;13.20;32.60;98045.09;5134924;27;20023;-32
2022/01/23 10:36:16;;;;;;;8.07;5.60;;;;;;;13.17;32.82;98045.88;5134459;27;20027;-31
2022/01/23 10:38:57;;;;;;;9.90;5.32;;;;;;;13.15;33.20;98042.78;5131914;27;20027;-31
2022/01/23 10:41:45;;;;;;;7.50;5.03;;;;;;;13.12;33.03;98040.06;5112467;28;20496;-31
2022/01/23 10:49:48;;;;;;;8.38;4.88;;;;;;;13.12;32.98;98037.31;5132725;27;20134;-31
2022/01/23 10:52:35;;;;;;;7.18;4.50;;;;;;;13.19;32.91;98026.41;5130527;27;20076;-31
2022/01/23 10:55:20;;;;;;;6.65;4.40;;;;;;;13.26;33.23;98021.66;5132543;27;20023;-31
2022/01/23 10:57:48;;;;;;;6.68;4.30;;;;;;;13.28;33.14;98018.53;5131590;27;20035;-31
2022/01/23 11:00:29;;;;;;;6.13;4.10;;;;;;;13.27;33.07;98017.75;5132292;27;20060;-31
2022/01/23 11:02:57;;;;;;;6.05;4.00;;;;;;;13.30;33.49;98025.13;5130315;27;20027;-31
2022/01/23 11:05:38;;;;;;;4.90;3.90;;;;;;;13.39;33.09;98023.84;5112055;28;20047;-31
2022/01/23 11:08:21;;;;;;;6.95;3.80;;;;;;;13.36;33.07;98019.22;5112142;28;20031;-31
2022/01/23 11:10:54;;;;;;;6.65;4.07;;;;;;;13.36;33.17;98019.97;5112049;28;20020;-31
2022/01/23 11:19:16;;;;;;;5.18;3.28;;;;;;;13.38;33.54;98011.41;5110525;28;20034;-31
2022/01/23 11:21:42;;;;;;;8.10;4.10;;;;;;;13.38;33.28;98014.13;5111413;28;20024;-31
2022/01/23 11:24:08;;;;;;;4.10;3.17;;;;;;;13.44;33.59;98009.78;5111380;28;20031;-32
2022/01/23 11:26:33;;;;;;;5.32;3.45;;;;;;;13.38;33.62;98001.28;5111275;28;20161;-30
2022/01/23 11:29:11;;;;;;;5.45;3.70;;;;;;;13.36;33.60;97997.41;5111801;28;20051;-31
2022/01/23 11:31:39;;;;;;;6.30;3.88;;;;;;;13.36;33.62;98000.13;5111727;28;20038;-30
2022/01/23 11:34:08;;;;;;;6.88;4.00;;;;;;;13.36;33.41;97991.97;5111753;28;20027;-31
2022/01/23 11:36:34;;;;;;;4.93;3.47;;;;;;;13.35;33.60;97990.44;5111818;28;20031;-31
2022/01/23 11:39:08;;;;;;;5.07;3.03;;;;;;;13.29;33.70;97987.38;5111172;28;20027;-31
2022/01/23 11:56:32;;;;;;;5.43;3.50;;;;;;;13.39;34.27;97980.25;5111186;28;20113;-31
2022/01/23 11:59:13;;;;;;;6.72;4.38;;;;;;;13.32;34.30;97972.19;5110833;28;20074;-31
2022/01/23 12:01:40;;;;;;;9.40;6.20;;;;;;;13.45;34.13;97973.97;5111361;28;20058;-31
2022/01/23 12:04:06;;;;;;;8.07;4.95;;;;;;;13.34;34.45;97978.00;5111098;28;20031;-30
2022/01/23 12:06:31;;;;;;;8.57;5.35;;;;;;;13.35;34.42;97971.38;5125093;28;20416;-31
2022/01/23 12:09:09;;;;;;;8.75;5.78;;;;;;;13.39;34.47;97972.84;5131570;28;20074;-31
2022/01/23 12:11:39;;;;;;;8.35;5.60;;;;;;;13.36;34.52;97970.16;5131585;28;20034;-31
2022/01/23 12:17:00;;;;;;;10.88;5.93;;;;;;;13.24;34.92;97968.75;5131075;28;20027;-31
2022/01/23 12:19:29;;;;;;;9.05;5.70;;;;;;;12.89;35.59;97964.41;5131957;28;20023;-31
2022/01/23 12:21:56;;;;;;;7.25;5.03;;;;;;;13.07;35.29;97970.47;5131748;28;20083;-31
2022/01/23 12:24:24;;;;;;;9.13;5.25;;;;;;;13.18;35.09;97960.25;5131817;28;20501;-31
2022/01/23 12:26:55;;;;;;;9.00;5.45;;;;;;;13.41;34.60;97959.59;5131370;28;20113;-31
2022/01/23 12:29:26;;;;;;;7.28;4.97;;;;;;;13.29;34.78;97965.59;5131793;28;20051;-31
2022/01/23 12:32:16;;;;;;;7.68;5.60;;;;;;;13.21;34.96;97973.06;5115769;27;20389;-31
2022/01/23 12:34:50;;;;;;;10.23;5.68;;;;;;;13.13;35.35;97962.59;5135233;27;20052;-31
2022/01/23 12:37:17;;;;;;;7.45;4.95;;;;;;;13.18;34.94;97965.69;5135387;27;20027;-31
2022/01/23 12:39:42;;;;;;;6.82;4.90;;;;;;;13.27;35.11;97970.66;5116387;27;20137;-32
2022/01/23 12:42:08;;;;;;;9.82;6.15;;;;;;;13.23;34.89;97961.75;5128085;27;20031;-31
2022/01/23 12:44:36;;;;;;;8.73;5.75;;;;;;;13.03;35.46;97953.38;5114679;28;20135;-31
2022/01/23 12:47:16;;;;;;;8.48;5.07;;;;;;;12.87;35.43;97953.91;5114270;28;20459;-31
2022/01/23 12:49:53;;;;;;;7.68;5.35;;;;;;;13.19;34.86;97953.63;5114713;28;20102;-31
2022/01/23 12:52:22;;;;;;;9.43;5.80;;;;;;;13.34;35.23;97956.19;5112565;28;20031;-31
2022/01/23 12:54:47;;;;;;;7.28;4.93;;;;;;;13.19;35.20;97945.47;5114100;28;20027;-31
2022/01/23 12:57:24;;;;;;;9.88;6.03;;;;;;;13.15;35.11;97942.00;5114154;28;20122;-30
2022/01/23 12:59:59;;;;;;;9.65;6.70;;;;;;;12.88;35.34;97941.84;5114263;28;20055;-31
2022/01/23 13:02:31;;;;;;;9.13;5.90;;;;;;;12.97;35.73;97935.19;5113772;28;20028;-31
2022/01/23 13:04:57;;;;;;;8.90;6.15;;;;;;;13.20;35.17;97933.38;5113929;28;20031;-32
2022/01/23 13:13:59;;;;;;;8.48;5.28;;;;;;;13.15;35.60;97930.31;5051102;28;20091;-31
2022/01/23 13:16:28;;;;;;;7.32;5.07;;;;;;;13.30;35.25;97927.03;5043213;28;20032;-30
2022/01/23 13:19:05;;;;;;;7.35;5.03;;;;;;;13.25;35.12;97930.19;5050628;28;20500;-31
2022/01/23 13:32:31;;;;;;;7.97;5.25;;;;;;;13.48;35.01;97912.41;5050603;28;20037;-31
2022/01/23 13:35:04;;;;;;;7.60;5.35;;;;;;;13.38;35.01;97919.53;5050677;28;20035;-31
2022/01/23 13:37:34;;;;;;;10.15;5.40;;;;;;;13.33;35.17;97916.50;5049957;28;20037;-32
2022/01/23 13:40:05;;;;;;;8.90;5.00;;;;;;;13.42;35.53;97919.50;5050106;28;20021;-31
2022/01/23 14:02:18;;;;;;;6.15;5.07;;;;;;;13.41;35.11;97907.81;5133314;27;20475;-30
2022/01/23 14:04:53;;;;;;;6.72;5.03;;;;;;;13.32;35.38;97917.69;5133234;27;20418;-31
2022/01/23 14:07:22;;;;;;;7.80;5.28;;;;;;;13.25;35.58;97911.13;5133480;27;20023;-30
2022/01/23 14:09:47;;;;;;;6.85;5.07;;;;;;;13.37;35.30;97909.81;5133297;27;20114;-30
2022/01/23 14:12:15;;;;;;;6.90;4.70;;;;;;;13.23;35.41;97908.03;5133367;27;20098;-31
2022/01/23 14:14:55;;;;;;;6.30;4.97;;;;;;;13.28;35.84;97899.41;5132997;27;20015;-31
2022/01/23 14:17:28;;;;;;;6.70;4.70;;;;;;;13.49;35.16;97898.38;5133172;27;20098;-30
2022/01/23 14:20:03;;;;;;;8.53;4.73;;;;;;;13.47;35.49;97899.97;5133128;27;20030;-30
2022/01/23 14:22:35;;;;;;;6.88;4.90;;;;;;;13.34;35.49;97899.75;5130764;27;20027;-30
2022/01/23 14:25:16;;;;;;;7.95;4.85;;;;;;;13.59;34.96;97910.31;5122714;27;20107;-32
2022/01/23 14:27:48;;;;;;;7.93;5.03;;;;;;;13.49;35.44;97903.03;5132600;27;20015;-31
2022/01/23 14:30:20;;;;;;;7.07;5.00;;;;;;;13.50;34.96;97894.47;5112896;28;20016;-31
2022/01/23 14:32:49;;;;;;;8.18;4.57;;;;;;;13.56;35.05;97902.97;5112204;28;20467;-31
2022/01/23 14:35:18;;;;;;;6.38;4.50;;;;;;;13.55;35.41;97896.75;5112331;28;20391;-31
2022/01/23 14:37:45;;;;;;;8.45;5.28;;;;;;;13.53;35.18;97899.09;5112154;28;20100;-31
2022/01/23 14:40:26;;;;;;;6.22;4.45;;;;;;;13.51;34.98;97892.50;5113064;28;20035;-31
2022/01/23 14:43:05;;;;;;;5.60;4.15;;;;;;;13.52;35.13;97891.31;5132418;27;20508;-31
2022/01/23 14:45:34;;;;;;;5.43;4.22;;;;;;;13.58;35.39;97889.69;5132471;27;20086;-31
2022/01/23 14:48:02;;;;;;;6.95;4.75;;;;;;;13.59;34.84;97885.78;5132773;27;20031;-30
2022/01/23 14:50:30;;;;;;;5.95;4.30;;;;;;;13.59;34.83;97880.34;5132718;27;20023;-31
2022/01/23 14:52:56;;;;;;;6.07;4.30;;;;;;;13.59;35.14;97880.34;5130828;27;20030;-30
2022/01/23 14:55:21;;;;;;;4.65;3.90;;;;;;;13.61;34.99;97870.53;5131610;27;20027;-31
2022/01/23 14:57:47;;;;;;;6.95;4.30;;;;;;;13.56;35.13;97878.44;5131604;27;20023;-31
2022/01/23 15:00:14;;;;;;;6.13;4.22;;;;;;;13.50;35.42;97867.19;5113965;27;20107;-31
2022/01/23 15:02:43;;;;;;;6.32;3.92;;;;;;;13.52;35.10;97867.56;5131939;27;20029;-31
2022/01/23 15:05:09;;;;;;;5.38;3.42;;;;;;;13.57;34.87;97855.44;5132458;27;20027;-33
2022/01/23 15:07:36;;;;;;;5.88;3.80;;;;;;;13.49;35.31;97854.75;5132315;27;20042;-31
2022/01/23 15:10:04;;;;;;;6.30;3.85;;;;;;;13.60;35.25;97860.06;5132371;27;20148;-31
2022/01/23 15:12:29;;;;;;;6.03;3.35;;;;;;;13.62;34.89;97863.16;5132517;27;20038;-31
2022/01/23 15:14:55;;;;;;;5.07;3.72;;;;;;;13.55;35.07;97857.81;5132230;27;20356;-31
2022/01/23 15:17:20;;;;;;;5.97;3.90;;;;;;;13.56;34.88;97859.34;5125758;27;20451;-31
2022/01/23 15:19:47;;;;;;;6.30;3.83;;;;;;;13.56;34.87;97864.81;5111771;28;20079;-31
2022/01/23 15:22:13;;;;;;;5.97;4.05;;;;;;;13.60;34.88;97868.22;5112108;28;20099;-31